Time;durP1;ratioP1;P1;durP2;ratioP2;P2;SDS_P1;SDS_P2;PMS_P1;PMS_P2;Temp;Humidity;BMP_temperature;BMP_pressure;BME280_temperature;BME280_humidity;BME280_pressure;Samples;Min_cycle;Max_cycle;Signal;HPM_P1;HPM_P2
2022/03/13 00:00:45;;;;;;;9.15;5.03;;;3.80;38.10;;;;;;5053490;28;20026;-81
2022/03/13 00:03:12;;;;;;;11.40;5.45;;;3.70;38.50;;;;;;5044466;28;20312;-81
2022/03/13 00:05:39;;;;;;;9.80;4.68;;;3.80;37.70;;;;;;5053357;28;20032;-81
2022/03/13 00:08:27;;;;;;;8.05;4.82;;;3.80;37.70;;;;;;5063257;28;20033;-83
2022/03/13 00:11:07;;;;;;;10.30;5.57;;;3.70;38.10;;;;;;5042783;28;20551;-82
2022/03/13 00:13:47;;;;;;;9.00;5.77;;;3.60;38.40;;;;;;5048092;28;20017;-82
2022/03/13 00:16:12;;;;;;;7.95;4.82;;;3.60;38.60;;;;;;5042177;28;20057;-82
2022/03/13 00:18:46;;;;;;;9.05;5.15;;;3.50;38.70;;;;;;5055707;28;20028;-82
2022/03/13 00:21:12;;;;;;;9.52;5.00;;;3.40;39.10;;;;;;5053554;28;20523;-83
2022/03/13 00:23:38;;;;;;;9.25;4.55;;;3.40;38.80;;;;;;5068265;28;20094;-83
2022/03/13 00:26:04;;;;;;;9.38;5.00;;;3.30;39.10;;;;;;5049318;28;20096;-82
2022/03/13 00:28:30;;;;;;;10.65;5.03;;;3.30;39.40;;;;;;5068290;28;20112;-83
2022/03/13 00:30:56;;;;;;;11.00;4.97;;;3.10;39.80;;;;;;5049601;28;20508;-82
2022/03/13 00:33:22;;;;;;;7.97;4.70;;;3.10;39.80;;;;;;5049941;28;20033;-83
2022/03/13 00:35:49;;;;;;;9.85;5.22;;;3.10;40.00;;;;;;5054350;28;20044;-82
2022/03/13 00:38:15;;;;;;;14.18;5.05;;;3.10;39.60;;;;;;5049230;28;20025;-82
2022/03/13 00:40:41;;;;;;;10.65;5.22;;;3.00;40.20;;;;;;5043705;28;20025;-82
2022/03/13 00:43:07;;;;;;;12.63;5.78;;;2.90;40.40;;;;;;5052503;28;20466;-83
2022/03/13 00:45:34;;;;;;;9.65;5.43;;;2.80;40.60;;;;;;5043916;28;20025;-82
2022/03/13 00:48:00;;;;;;;10.85;5.53;;;2.70;41.00;;;;;;5044924;28;20029;-82
2022/03/13 00:50:25;;;;;;;10.40;5.18;;;2.70;41.10;;;;;;5041598;28;20053;-82
2022/03/13 00:52:53;;;;;;;12.60;5.43;;;2.70;41.00;;;;;;5037876;28;20025;-83
2022/03/13 00:55:19;;;;;;;10.55;5.45;;;2.60;41.10;;;;;;5035699;28;20048;-82
2022/03/13 00:57:45;;;;;;;9.32;5.20;;;2.50;41.50;;;;;;5054337;28;20116;-82
2022/03/13 01:00:11;;;;;;;10.57;5.22;;;2.50;41.60;;;;;;5062232;28;20521;-82
2022/03/13 01:02:38;;;;;;;9.00;4.57;;;2.50;41.50;;;;;;5049711;28;20606;-82
2022/03/13 01:05:04;;;;;;;12.25;5.25;;;2.50;41.50;;;;;;5050467;28;20033;-82
2022/03/13 01:07:29;;;;;;;10.07;4.95;;;2.40;42.00;;;;;;5046900;28;20052;-83
2022/03/13 01:09:55;;;;;;;10.88;5.53;;;2.30;42.00;;;;;;5057392;28;20064;-82
2022/03/13 01:12:21;;;;;;;9.50;5.22;;;2.50;41.60;;;;;;5044656;28;20032;-82
2022/03/13 01:14:47;;;;;;;10.63;5.70;;;2.50;41.50;;;;;;5044684;28;20021;-82
2022/03/13 01:17:13;;;;;;;8.07;4.78;;;2.40;41.70;;;;;;5044032;28;20033;-82
2022/03/13 01:19:38;;;;;;;14.43;5.50;;;2.40;42.00;;;;;;5037304;28;20029;-82
2022/03/13 01:22:06;;;;;;;11.35;5.28;;;2.30;41.90;;;;;;5037171;28;20025;-82
2022/03/13 01:24:38;;;;;;;10.38;5.70;;;2.30;42.00;;;;;;5043908;28;20472;-83
2022/03/13 01:27:03;;;;;;;14.15;5.20;;;2.40;41.60;;;;;;5050879;28;20036;-82
2022/03/13 01:29:31;;;;;;;8.73;5.20;;;2.40;41.60;;;;;;5047207;28;20491;-83
2022/03/13 01:31:57;;;;;;;10.50;5.00;;;2.30;41.90;;;;;;5048309;28;20029;-82
2022/03/13 01:34:44;;;;;;;9.32;5.22;;;2.20;42.10;;;;;;5043554;28;20059;-82
2022/03/13 01:37:28;;;;;;;11.73;5.15;;;2.10;42.80;;;;;;5071078;28;20036;-83
2022/03/13 01:39:55;;;;;;;11.45;5.43;;;2.00;42.90;;;;;;5046752;28;20607;-82
2022/03/13 01:42:21;;;;;;;9.98;5.03;;;1.90;42.90;;;;;;5058068;28;20032;-82
2022/03/13 01:44:47;;;;;;;12.48;6.30;;;1.80;43.10;;;;;;5049562;28;20034;-82
2022/03/13 01:47:13;;;;;;;8.70;5.50;;;1.70;43.70;;;;;;5051488;28;20120;-82
2022/03/13 01:49:39;;;;;;;10.75;5.40;;;1.60;44.00;;;;;;5045103;28;20021;-82
2022/03/13 01:52:04;;;;;;;10.63;5.35;;;1.50;44.30;;;;;;5044495;28;20029;-82
2022/03/13 01:54:30;;;;;;;9.85;5.15;;;1.50;44.20;;;;;;5046832;28;20044;-83
2022/03/13 01:56:57;;;;;;;10.80;5.35;;;1.50;44.50;;;;;;5050679;28;20029;-83
2022/03/13 01:59:22;;;;;;;10.27;5.43;;;1.40;44.80;;;;;;5044079;28;20045;-82
2022/03/13 02:01:48;;;;;;;10.63;4.95;;;1.30;45.40;;;;;;5054199;28;20468;-82
2022/03/13 02:04:22;;;;;;;12.25;5.43;;;1.30;45.10;;;;;;5048055;28;20048;-82
2022/03/13 02:06:47;;;;;;;15.13;5.93;;;1.30;45.40;;;;;;5043570;28;20025;-83
2022/03/13 02:09:13;;;;;;;9.55;5.53;;;1.20;45.70;;;;;;5054914;28;20529;-83
2022/03/13 02:11:40;;;;;;;11.18;5.65;;;1.20;45.50;;;;;;5048919;28;20014;-82
2022/03/13 02:14:08;;;;;;;11.48;5.47;;;1.10;45.80;;;;;;5042774;28;20025;-82
2022/03/13 02:16:35;;;;;;;10.57;5.05;;;1.10;46.10;;;;;;5043590;28;20029;-82
2022/03/13 02:19:01;;;;;;;8.90;5.22;;;1.00;46.50;;;;;;5049546;28;20025;-82
2022/03/13 02:21:30;;;;;;;10.68;5.82;;;0.80;46.80;;;;;;5053262;28;20094;-82
2022/03/13 02:23:58;;;;;;;9.77;5.80;;;0.70;47.70;;;;;;5051111;28;20060;-82
2022/03/13 02:26:24;;;;;;;11.65;5.93;;;0.70;47.70;;;;;;5039900;28;20035;-82
2022/03/13 02:28:55;;;;;;;9.50;5.30;;;0.60;47.90;;;;;;5072772;28;20025;-82
2022/03/13 02:31:28;;;;;;;;;;;0.60;47.90;;;;;;5049691;28;20025;-82
2022/03/13 02:33:54;;;;;;;9.52;5.28;;;0.70;47.90;;;;;;5047476;28;19924;-82
2022/03/13 02:36:32;;;;;;;10.00;5.65;;;0.70;48.50;;;;;;5049688;28;20493;-82
2022/03/13 02:39:02;;;;;;;9.75;5.53;;;0.80;47.30;;;;;;5048283;28;20499;-82
2022/03/13 02:41:28;;;;;;;14.10;5.95;;;0.80;47.20;;;;;;5051606;28;20032;-82
2022/03/13 02:43:55;;;;;;;12.10;5.80;;;0.90;46.90;;;;;;5045490;28;20112;-82
2022/03/13 02:46:23;;;;;;;9.93;5.13;;;1.00;46.20;;;;;;5047556;28;20035;-82
2022/03/13 02:48:50;;;;;;;13.30;5.97;;;1.00;46.40;;;;;;5050965;28;20032;-82
2022/03/13 02:51:15;;;;;;;13.30;5.78;;;0.90;46.60;;;;;;5065227;28;20113;-82
2022/03/13 02:53:41;;;;;;;11.45;5.65;;;0.90;47.10;;;;;;5048725;28;20511;-83
2022/03/13 02:56:07;;;;;;;11.38;5.78;;;0.80;47.10;;;;;;5040546;28;20024;-82
2022/03/13 02:58:33;;;;;;;10.20;5.75;;;0.80;47.00;;;;;;5047705;28;20029;-83
2022/03/13 03:00:59;;;;;;;8.80;4.65;;;0.80;47.20;;;;;;5069290;28;20033;-82
2022/03/13 03:03:24;;;;;;;8.82;5.38;;;0.80;47.50;;;;;;5045921;28;20083;-82
2022/03/13 03:05:51;;;;;;;10.30;5.63;;;0.70;47.70;;;;;;5039166;28;20070;-83
2022/03/13 03:08:17;;;;;;;8.15;4.97;;;0.70;47.80;;;;;;5049563;28;20029;-82
2022/03/13 03:10:43;;;;;;;10.25;5.60;;;0.60;48.20;;;;;;5071809;28;20017;-82
2022/03/13 03:13:10;;;;;;;11.77;5.65;;;0.70;47.90;;;;;;5056889;28;20029;-82
2022/03/13 03:15:36;;;;;;;12.60;5.78;;;0.80;47.60;;;;;;5054171;28;20031;-82
2022/03/13 03:18:04;;;;;;;9.15;5.75;;;0.80;47.50;;;;;;5042250;28;20037;-82
2022/03/13 03:20:30;;;;;;;8.75;5.30;;;0.90;47.10;;;;;;5048420;28;20033;-82
2022/03/13 03:22:56;;;;;;;11.32;5.95;;;0.80;47.30;;;;;;5051602;28;20526;-82
2022/03/13 03:25:24;;;;;;;9.32;5.80;;;0.80;47.60;;;;;;5052717;28;20037;-82
2022/03/13 03:27:51;;;;;;;9.98;5.72;;;0.90;47.10;;;;;;5054063;28;20032;-83
2022/03/13 03:30:25;;;;;;;11.77;6.05;;;0.80;47.80;;;;;;5044547;28;20115;-82
2022/03/13 03:32:51;;;;;;;12.38;6.18;;;0.80;47.90;;;;;;5039377;28;20031;-83
2022/03/13 03:35:19;;;;;;;10.52;5.63;;;0.90;47.10;;;;;;5041701;28;20069;-82
2022/03/13 03:37:48;;;;;;;12.65;6.47;;;0.90;47.40;;;;;;5055260;28;20108;-82
2022/03/13 03:40:14;;;;;;;11.63;5.75;;;0.90;47.60;;;;;;5037043;28;20499;-82
2022/03/13 03:42:41;;;;;;;11.65;5.70;;;0.90;47.40;;;;;;5058562;28;20033;-82
2022/03/13 03:45:07;;;;;;;10.75;5.53;;;0.90;47.20;;;;;;5043721;28;20541;-82
2022/03/13 03:47:33;;;;;;;11.45;5.95;;;0.90;47.40;;;;;;5045315;28;20049;-82
2022/03/13 03:49:58;;;;;;;12.75;5.90;;;0.80;47.80;;;;;;5070830;28;20373;-82
2022/03/13 03:52:24;;;;;;;12.40;5.60;;;0.80;48.00;;;;;;5047193;28;20021;-82
2022/03/13 03:54:49;;;;;;;13.05;6.05;;;0.80;48.00;;;;;;5049639;28;20047;-83
2022/03/13 03:57:15;;;;;;;12.48;6.28;;;0.70;48.20;;;;;;5041717;28;20036;-82
2022/03/13 03:59:40;;;;;;;9.50;5.78;;;0.70;48.30;;;;;;5047292;28;20028;-82
2022/03/13 04:02:06;;;;;;;12.65;6.18;;;0.70;48.10;;;;;;5053710;28;20040;-82
2022/03/13 04:04:31;;;;;;;12.07;5.32;;;0.70;48.20;;;;;;5049935;28;20171;-82
2022/03/13 04:06:57;;;;;;;11.82;6.03;;;0.70;48.40;;;;;;5039994;28;20036;-82
2022/03/13 04:09:22;;;;;;;10.18;6.30;;;0.60;48.60;;;;;;5042749;28;20040;-82
2022/03/13 04:11:48;;;;;;;9.65;5.65;;;0.60;48.70;;;;;;5040914;28;20034;-82
2022/03/13 04:14:14;;;;;;;15.60;6.50;;;0.60;48.70;;;;;;5045967;28;20025;-82
2022/03/13 04:16:40;;;;;;;10.82;6.20;;;0.50;48.80;;;;;;5048605;28;20392;-82
2022/03/13 04:19:06;;;;;;;10.88;6.20;;;0.60;48.70;;;;;;5039860;28;20029;-82
2022/03/13 04:21:32;;;;;;;11.40;6.35;;;0.50;49.00;;;;;;5052833;28;20060;-83
2022/03/13 04:23:57;;;;;;;11.48;6.40;;;0.50;49.20;;;;;;5050221;28;20040;-83
2022/03/13 04:26:23;;;;;;;11.25;5.50;;;0.40;49.40;;;;;;5066167;28;20400;-82
2022/03/13 04:28:49;;;;;;;11.50;6.10;;;0.40;49.20;;;;;;5051396;28;20021;-83
2022/03/13 04:31:15;;;;;;;9.98;6.30;;;0.40;49.50;;;;;;5047736;28;20537;-82
2022/03/13 04:33:41;;;;;;;10.45;6.15;;;0.40;49.50;;;;;;5045185;28;20504;-82
2022/03/13 04:36:12;;;;;;;15.57;6.13;;;0.40;49.30;;;;;;5050748;28;20037;-82
2022/03/13 04:38:38;;;;;;;11.93;6.07;;;0.30;49.60;;;;;;5048155;28;20106;-82
2022/03/13 04:41:03;;;;;;;14.07;6.88;;;0.30;49.90;;;;;;5054185;28;20037;-82
2022/03/13 04:43:29;;;;;;;11.10;5.80;;;0.30;49.90;;;;;;5049202;28;20127;-82
2022/03/13 04:45:54;;;;;;;11.85;6.53;;;0.30;50.00;;;;;;5039609;28;20056;-82
2022/03/13 04:48:20;;;;;;;13.13;6.45;;;0.20;50.00;;;;;;5044183;28;20489;-82
2022/03/13 04:50:46;;;;;;;10.65;6.00;;;0.20;50.50;;;;;;5045566;28;20048;-82
2022/03/13 04:53:13;;;;;;;11.13;6.47;;;0.10;50.50;;;;;;5044051;28;20369;-82
2022/03/13 04:55:38;;;;;;;12.07;6.35;;;0.10;50.60;;;;;;5046901;28;20032;-82
2022/03/13 04:58:04;;;;;;;11.18;6.38;;;0.10;50.30;;;;;;5035695;28;20030;-83
2022/03/13 05:00:30;;;;;;;12.65;5.90;;;0.10;50.30;;;;;;5042805;28;20032;-82
2022/03/13 05:02:56;;;;;;;14.05;6.50;;;0.10;50.40;;;;;;5051319;28;20029;-82
2022/03/13 05:05:22;;;;;;;11.43;5.97;;;0.10;50.60;;;;;;5047054;28;20500;-82
2022/03/13 05:07:49;;;;;;;15.75;5.80;;;0.10;50.20;;;;;;5041462;28;20044;-83
2022/03/13 05:10:15;;;;;;;12.57;5.97;;;0.10;50.10;;;;;;5034071;28;20028;-82
2022/03/13 05:12:42;;;;;;;12.48;5.88;;;0.10;50.20;;;;;;5043536;28;20017;-82
2022/03/13 05:15:08;;;;;;;12.02;6.65;;;0.00;50.80;;;;;;5048753;28;20388;-82
2022/03/13 05:17:34;;;;;;;14.40;5.78;;;0.00;50.60;;;;;;5040190;28;20480;-82
2022/03/13 05:19:59;;;;;;;10.95;6.43;;;0.00;50.50;;;;;;5045705;28;20026;-82
2022/03/13 05:22:25;;;;;;;10.48;5.97;;;0.00;50.90;;;;;;5036938;28;20094;-83
2022/03/13 05:24:50;;;;;;;12.20;6.32;;;0.00;50.70;;;;;;5048982;28;20080;-82
2022/03/13 05:27:16;;;;;;;12.15;6.43;;;0.00;51.00;;;;;;5046736;28;20024;-82
2022/03/13 05:29:41;;;;;;;11.57;6.20;;;0.00;51.10;;;;;;5037975;28;20045;-83
2022/03/13 05:32:07;;;;;;;10.88;5.50;;;0.00;50.90;;;;;;5043290;28;20071;-82
2022/03/13 05:34:33;;;;;;;13.85;6.10;;;-3276.70;51.30;;;;;;5040148;28;20048;-82
2022/03/13 05:36:58;;;;;;;13.20;6.03;;;-3276.70;51.20;;;;;;5038296;28;20025;-82
2022/03/13 05:39:24;;;;;;;10.80;5.63;;;-3276.70;51.60;;;;;;5043195;28;20038;-82
2022/03/13 05:41:50;;;;;;;10.25;5.60;;;-3276.60;51.80;;;;;;5048890;28;20025;-82
2022/03/13 05:44:17;;;;;;;13.40;6.22;;;-3276.60;51.70;;;;;;5054906;28;20044;-82
2022/03/13 05:46:42;;;;;;;11.40;6.10;;;-3276.60;51.80;;;;;;5067763;28;20037;-82
2022/03/13 05:49:08;;;;;;;12.38;6.30;;;-3276.70;51.30;;;;;;5044025;28;20392;-82
2022/03/13 05:51:40;;;;;;;11.40;6.32;;;-3276.70;51.00;;;;;;5047903;28;20155;-82
2022/03/13 05:54:06;;;;;;;13.48;6.50;;;0.00;50.80;;;;;;5050878;28;20029;-82
2022/03/13 05:56:32;;;;;;;11.23;6.00;;;-3276.70;51.40;;;;;;5054675;28;20066;-82
2022/03/13 05:58:57;;;;;;;12.93;6.80;;;-3276.70;51.60;;;;;;5052720;28;20037;-82
2022/03/13 06:01:23;;;;;;;12.73;6.22;;;-3276.70;51.10;;;;;;5054531;28;20029;-82
2022/03/13 06:03:49;;;;;;;12.63;6.55;;;-3276.60;51.40;;;;;;5056127;28;20025;-81
2022/03/13 06:06:15;;;;;;;12.20;6.50;;;-3276.70;51.40;;;;;;5048752;28;20030;-82
2022/03/13 06:08:40;;;;;;;11.23;5.90;;;-3276.60;51.70;;;;;;5042760;28;20468;-82
2022/03/13 06:11:06;;;;;;;13.48;6.82;;;-3276.60;51.70;;;;;;5071014;28;20571;-82
2022/03/13 06:13:32;;;;;;;10.65;5.93;;;-3276.70;51.40;;;;;;5049206;28;20401;-83
2022/03/13 06:15:58;;;;;;;12.40;6.63;;;-3276.70;51.50;;;;;;5050503;28;20500;-82
2022/03/13 06:18:31;;;;;;;14.40;6.95;;;-3276.70;51.20;;;;;;5054702;28;20029;-81
2022/03/13 06:20:57;;;;;;;13.57;6.20;;;0.00;51.40;;;;;;5063886;28;20021;-81
2022/03/13 06:23:23;;;;;;;14.68;6.85;;;0.00;50.70;;;;;;5055738;28;20112;-82
2022/03/13 06:25:49;;;;;;;9.77;6.13;;;0.00;50.90;;;;;;5052447;28;20104;-83
2022/03/13 06:28:14;;;;;;;10.93;6.00;;;0.10;50.10;;;;;;5050642;28;20029;-82
2022/03/13 06:30:40;;;;;;;12.45;6.30;;;0.20;50.10;;;;;;5046632;28;20029;-81
2022/03/13 06:33:06;;;;;;;12.65;6.80;;;0.10;49.90;;;;;;5046013;28;20031;-81
2022/03/13 06:35:32;;;;;;;10.32;6.35;;;0.20;49.90;;;;;;5050533;28;20518;-82
2022/03/13 06:37:57;;;;;;;13.25;6.47;;;0.20;49.50;;;;;;5046236;28;20063;-83
2022/03/13 06:40:24;;;;;;;11.10;6.00;;;0.30;49.50;;;;;;5049934;28;20033;-82
2022/03/13 06:42:53;;;;;;;9.70;5.78;;;0.50;49.00;;;;;;5059070;28;20083;-82
2022/03/13 06:45:19;;;;;;;10.65;6.40;;;0.50;48.80;;;;;;5054357;28;20044;-82
2022/03/13 06:47:46;;;;;;;12.93;6.43;;;0.60;48.20;;;;;;5053705;28;20476;-81
2022/03/13 06:50:17;;;;;;;9.10;5.75;;;0.70;48.00;;;;;;5048736;28;20113;-81
2022/03/13 06:52:44;;;;;;;10.55;6.25;;;0.70;48.00;;;;;;5043804;28;20068;-81
2022/03/13 06:55:13;;;;;;;12.40;6.47;;;0.80;47.80;;;;;;5054671;28;20032;-81
2022/03/13 06:57:39;;;;;;;16.85;6.50;;;0.90;47.60;;;;;;5053583;28;20028;-81
2022/03/13 07:00:06;;;;;;;13.30;6.10;;;1.00;47.60;;;;;;5051975;28;20037;-81
2022/03/13 07:02:31;;;;;;;11.50;6.40;;;1.10;47.30;;;;;;5045067;28;20029;-81
2022/03/13 07:04:57;;;;;;;14.95;6.28;;;1.30;46.50;;;;;;5037301;28;20036;-81
2022/03/13 07:07:22;;;;;;;12.90;6.50;;;1.40;46.20;;;;;;5050608;28;20488;-81
2022/03/13 07:09:49;;;;;;;15.68;7.78;;;1.60;46.90;;;;;;5052673;28;20029;-81
2022/03/13 07:12:15;;;;;;;10.23;6.15;;;1.90;45.40;;;;;;5052042;28;20476;-81
2022/03/13 07:14:46;;;;;;;15.85;6.03;;;2.10;46.40;;;;;;5055417;28;20020;-82
2022/03/13 07:17:15;;;;;;;;;;;2.10;43.70;;;;;;5054964;28;20127;-82
2022/03/13 07:19:43;;;;;;;14.60;6.82;;;2.30;44.00;;;;;;5048061;28;19916;-82
2022/03/13 07:22:10;;;;;;;14.98;7.15;;;2.30;44.40;;;;;;5045923;28;20026;-82
2022/03/13 07:24:36;;;;;;;9.52;6.57;;;2.40;43.70;;;;;;5047903;28;20163;-81
2022/03/13 07:27:02;;;;;;;12.60;6.75;;;2.40;43.30;;;;;;5052268;28;20475;-81
2022/03/13 07:29:28;;;;;;;12.85;6.88;;;2.50;43.50;;;;;;5052842;28;20040;-82
2022/03/13 07:31:56;;;;;;;11.57;6.38;;;2.60;42.90;;;;;;5052422;28;20473;-82
2022/03/13 07:34:26;;;;;;;9.73;6.00;;;2.60;43.10;;;;;;5041448;28;20071;-81
2022/03/13 07:36:52;;;;;;;10.77;6.15;;;2.70;43.60;;;;;;5050132;28;20025;-82
2022/03/13 07:39:19;;;;;;;11.35;5.80;;;2.80;42.10;;;;;;5051250;28;20032;-81
2022/03/13 07:41:45;;;;;;;11.07;6.70;;;2.90;41.60;;;;;;5055441;28;20025;-81
2022/03/13 07:44:11;;;;;;;11.02;6.00;;;3.00;41.80;;;;;;5068838;28;20025;-81
2022/03/13 07:46:37;;;;;;;13.00;6.05;;;3.10;42.70;;;;;;5046840;28;20039;-81
2022/03/13 07:49:03;;;;;;;11.85;5.85;;;3.20;41.70;;;;;;5045825;28;20021;-82
2022/03/13 07:51:28;;;;;;;12.90;6.00;;;3.30;41.00;;;;;;5053723;28;20488;-82
2022/03/13 07:53:54;;;;;;;10.95;6.05;;;3.30;41.30;;;;;;5050441;28;20603;-82
2022/03/13 07:56:22;;;;;;;11.10;6.00;;;3.50;40.70;;;;;;5049489;28;20078;-85
2022/03/13 07:58:48;;;;;;;10.43;5.53;;;3.50;40.30;;;;;;5052595;28;20025;-82
2022/03/13 08:01:13;;;;;;;10.38;5.90;;;3.70;40.20;;;;;;5047015;28;20037;-82
2022/03/13 08:03:39;;;;;;;10.70;6.22;;;3.80;40.30;;;;;;5067102;28;20029;-82
2022/03/13 08:06:05;;;;;;;11.02;6.18;;;3.90;39.70;;;;;;5048326;28;20057;-82
2022/03/13 08:08:31;;;;;;;10.15;5.95;;;3.90;40.00;;;;;;5050405;28;20017;-82
2022/03/13 08:10:57;;;;;;;10.30;5.97;;;4.00;39.30;;;;;;5042297;28;20025;-82
2022/03/13 08:13:23;;;;;;;10.18;5.72;;;4.10;39.90;;;;;;5050364;28;20542;-82
2022/03/13 08:15:49;;;;;;;11.25;5.78;;;4.20;39.00;;;;;;5048988;28;20024;-82
2022/03/13 08:18:15;;;;;;;11.88;6.57;;;4.40;40.00;;;;;;5051247;28;20033;-82
2022/03/13 08:20:40;;;;;;;12.55;6.15;;;4.60;38.40;;;;;;5046092;28;20108;-82
2022/03/13 08:23:06;;;;;;;11.43;5.88;;;4.90;38.20;;;;;;5041928;28;20075;-82
2022/03/13 08:25:32;;;;;;;10.88;5.82;;;4.90;37.70;;;;;;5046575;28;20108;-81
2022/03/13 08:27:57;;;;;;;10.88;5.63;;;5.20;37.40;;;;;;5047350;28;20067;-83
2022/03/13 08:30:23;;;;;;;9.20;6.03;;;5.40;36.90;;;;;;5050902;28;20029;-82
2022/03/13 08:32:48;;;;;;;11.63;5.93;;;5.80;36.70;;;;;;5043905;28;20021;-82
2022/03/13 08:35:14;;;;;;;10.18;5.82;;;5.80;36.00;;;;;;5041607;28;20037;-81
2022/03/13 08:37:40;;;;;;;9.25;5.55;;;6.00;35.60;;;;;;5045886;28;20029;-83
2022/03/13 08:40:06;;;;;;;11.13;6.00;;;6.40;36.60;;;;;;5048526;28;20075;-83
2022/03/13 08:42:32;;;;;;;9.75;5.50;;;6.80;36.00;;;;;;5053315;28;20052;-82
2022/03/13 08:44:59;;;;;;;9.15;5.40;;;7.00;35.00;;;;;;5051616;28;20116;-83
2022/03/13 08:47:25;;;;;;;10.48;5.65;;;7.40;35.40;;;;;;5044991;28;20139;-83
2022/03/13 08:49:51;;;;;;;9.57;5.45;;;7.30;33.10;;;;;;5053454;28;20063;-83
2022/03/13 08:52:17;;;;;;;9.50;5.40;;;7.60;33.70;;;;;;5043827;28;20049;-83
2022/03/13 08:54:43;;;;;;;9.00;5.75;;;7.80;33.40;;;;;;5045582;28;20033;-82
2022/03/13 08:57:08;;;;;;;11.68;5.32;;;8.00;32.80;;;;;;5032770;28;20091;-82
2022/03/13 08:59:35;;;;;;;9.60;5.38;;;8.10;32.60;;;;;;5030799;28;20093;-80
2022/03/13 09:02:01;;;;;;;9.63;5.22;;;8.30;32.60;;;;;;5046761;28;20033;-79
2022/03/13 09:04:27;;;;;;;8.93;5.28;;;8.20;31.50;;;;;;5046427;28;20404;-80
2022/03/13 09:06:54;;;;;;;10.27;5.45;;;8.30;31.20;;;;;;5038253;28;20524;-80
2022/03/13 09:09:20;;;;;;;10.13;4.95;;;8.50;32.30;;;;;;5043558;28;20121;-80
2022/03/13 09:11:47;;;;;;;7.50;4.88;;;8.30;32.00;;;;;;5042753;28;20026;-80
2022/03/13 09:14:13;;;;;;;7.47;4.88;;;8.60;30.90;;;;;;5042438;28;20029;-80
2022/03/13 09:16:40;;;;;;;8.48;5.15;;;8.80;30.40;;;;;;5040470;28;20020;-80
2022/03/13 09:19:06;;;;;;;9.20;5.07;;;8.90;31.60;;;;;;5047443;28;20029;-80
2022/03/13 09:21:34;;;;;;;9.52;4.82;;;9.40;30.90;;;;;;5048844;28;20116;-79
2022/03/13 09:24:00;;;;;;;8.07;5.28;;;9.90;30.50;;;;;;5038605;28;20032;-80
2022/03/13 09:26:26;;;;;;;8.90;4.78;;;9.70;29.40;;;;;;5057441;28;20032;-80
2022/03/13 09:28:51;;;;;;;9.55;4.75;;;9.70;28.50;;;;;;5053628;28;20026;-80
2022/03/13 09:31:17;;;;;;;8.65;4.18;;;10.20;30.10;;;;;;5046023;28;20048;-80
2022/03/13 09:33:42;;;;;;;7.80;4.50;;;10.10;28.50;;;;;;5050919;28;20518;-80
2022/03/13 09:36:08;;;;;;;10.90;4.38;;;10.30;29.10;;;;;;5050315;28;20511;-80
2022/03/13 09:38:34;;;;;;;7.93;4.28;;;9.80;28.20;;;;;;5047695;28;20029;-80
2022/03/13 09:40:59;;;;;;;9.68;5.18;;;9.80;28.10;;;;;;5048118;28;20022;-80
2022/03/13 09:43:25;;;;;;;7.40;4.35;;;10.10;28.30;;;;;;5055585;28;20033;-80
2022/03/13 09:45:50;;;;;;;7.60;4.45;;;10.60;28.60;;;;;;5052288;28;20020;-80
2022/03/13 09:48:18;;;;;;;10.45;4.70;;;10.80;28.60;;;;;;5045482;28;20098;-79
2022/03/13 09:50:45;;;;;;;8.50;4.63;;;10.60;27.20;;;;;;5042246;28;20029;-79
2022/03/13 09:53:11;;;;;;;7.70;3.88;;;11.10;27.80;;;;;;5053044;28;20468;-79
2022/03/13 09:55:38;;;;;;;6.50;4.10;;;11.40;27.10;;;;;;5054568;28;20043;-80
2022/03/13 09:58:06;;;;;;;8.68;4.43;;;11.20;25.50;;;;;;5045108;28;20030;-80
2022/03/13 10:00:31;;;;;;;7.82;3.83;;;11.10;26.20;;;;;;5051156;28;20021;-80
2022/03/13 10:02:58;;;;;;;8.50;4.50;;;11.00;25.10;;;;;;5056411;28;20368;-80
2022/03/13 10:05:25;;;;;;;8.95;4.35;;;11.10;26.20;;;;;;5041578;28;20087;-80
2022/03/13 10:07:57;;;;;;;7.25;4.35;;;11.10;26.70;;;;;;5052270;28;20218;-79
2022/03/13 10:10:26;;;;;;;6.68;3.97;;;11.30;25.80;;;;;;5051526;28;20578;-79
2022/03/13 10:12:51;;;;;;;7.90;4.57;;;11.60;27.70;;;;;;5048845;28;20044;-80
2022/03/13 10:15:17;;;;;;;8.65;4.78;;;11.80;27.10;;;;;;5040695;28;20025;-80
2022/03/13 10:17:43;;;;;;;7.82;4.45;;;11.70;27.40;;;;;;5035564;28;20142;-80
2022/03/13 10:20:25;;;;;;;12.02;4.60;;;11.90;27.10;;;;;;5041536;28;20053;-79
2022/03/13 10:22:59;;;;;;;6.47;4.28;;;12.00;26.60;;;;;;5037146;28;20460;-79
2022/03/13 10:25:33;;;;;;;7.22;4.20;;;12.10;26.80;;;;;;5040295;28;20131;-79
2022/03/13 10:28:21;;;;;;;8.55;4.70;;;12.20;26.80;;;;;;5051817;28;20040;-79
2022/03/13 10:30:58;;;;;;;7.55;4.30;;;12.50;25.40;;;;;;5045594;28;20025;-79
2022/03/13 10:33:29;;;;;;;7.32;4.10;;;12.60;26.10;;;;;;5035826;28;20022;-79
2022/03/13 10:36:08;;;;;;;10.82;4.60;;;12.50;25.70;;;;;;5039419;28;20033;-79
2022/03/13 10:38:34;;;;;;;7.60;4.43;;;12.80;25.70;;;;;;5048083;28;20120;-79
2022/03/13 10:41:01;;;;;;;9.40;4.43;;;12.60;25.40;;;;;;5052263;28;20048;-79
2022/03/13 10:43:29;;;;;;;6.75;4.10;;;12.60;26.20;;;;;;5047683;28;20025;-79
2022/03/13 10:45:56;;;;;;;9.93;4.60;;;12.80;25.90;;;;;;5040835;28;20117;-79
2022/03/13 10:48:33;;;;;;;7.50;4.68;;;12.90;24.90;;;;;;5035869;28;20511;-79
2022/03/13 10:51:08;;;;;;;8.30;4.55;;;12.70;24.40;;;;;;5034260;28;20476;-80
2022/03/13 10:53:39;;;;;;;8.52;5.03;;;13.00;25.50;;;;;;5046934;28;20029;-80
2022/03/13 10:56:08;;;;;;;7.80;4.35;;;13.00;25.10;;;;;;5054026;28;20075;-79
2022/03/13 10:58:35;;;;;;;7.07;4.60;;;13.30;24.80;;;;;;5054386;28;20789;-79
2022/03/13 11:01:32;;;;;;;7.85;4.70;;;13.40;25.30;;;;;;5050266;28;20053;-79
2022/03/13 11:04:06;;;;;;;11.38;4.55;;;13.60;25.20;;;;;;5034130;28;20075;-79
2022/03/13 11:06:32;;;;;;;9.23;4.57;;;13.60;24.90;;;;;;5035971;28;20292;-79
2022/03/13 11:08:59;;;;;;;8.57;4.53;;;13.40;25.10;;;;;;5034684;28;20037;-79
2022/03/13 11:11:29;;;;;;;7.20;4.40;;;13.50;25.20;;;;;;5042768;28;20025;-80
2022/03/13 11:14:02;;;;;;;8.18;4.65;;;13.40;24.70;;;;;;5043980;28;20200;-80
2022/03/13 11:16:33;;;;;;;9.30;4.57;;;13.50;25.20;;;;;;5050638;28;20059;-80
2022/03/13 11:19:04;;;;;;;9.68;4.45;;;13.20;24.30;;;;;;5043670;28;20428;-80
2022/03/13 11:21:30;;;;;;;7.90;4.90;;;13.30;24.70;;;;;;5046667;28;20036;-80
2022/03/13 11:23:57;;;;;;;8.45;4.90;;;13.40;25.70;;;;;;5047270;28;20060;-80
2022/03/13 11:26:25;;;;;;;8.98;4.75;;;13.60;24.30;;;;;;5041499;28;20103;-80
2022/03/13 11:28:53;;;;;;;10.05;4.57;;;13.60;24.00;;;;;;5054560;28;20046;-80
2022/03/13 11:31:34;;;;;;;7.60;4.55;;;13.50;24.70;;;;;;5047075;28;20009;-80
2022/03/13 11:34:16;;;;;;;8.57;4.07;;;13.60;24.00;;;;;;5050334;28;20029;-80
2022/03/13 11:36:49;;;;;;;9.00;4.00;;;13.90;23.30;;;;;;5048110;28;20389;-80
2022/03/13 11:39:30;;;;;;;6.80;3.92;;;14.10;23.30;;;;;;5047468;28;20040;-80
2022/03/13 11:41:56;;;;;;;6.38;4.35;;;14.00;22.40;;;;;;5053156;28;20025;-80
2022/03/13 11:44:25;;;;;;;8.60;4.03;;;14.00;23.40;;;;;;5053984;28;20098;-81
2022/03/13 11:46:53;;;;;;;7.07;4.28;;;14.00;23.20;;;;;;5047276;28;20026;-81
2022/03/13 11:49:34;;;;;;;6.55;4.43;;;13.90;22.40;;;;;;5044780;28;20033;-81
2022/03/13 11:52:20;;;;;;;8.15;3.88;;;14.50;23.20;;;;;;5038707;28;20087;-80
2022/03/13 11:54:49;;;;;;;8.70;4.20;;;14.50;22.00;;;;;;5052297;28;20032;-81
2022/03/13 11:57:17;;;;;;;6.32;3.70;;;14.90;22.50;;;;;;5048373;28;20415;-80
2022/03/13 11:59:48;;;;;;;7.38;4.20;;;14.60;21.50;;;;;;5050615;28;20092;-80
2022/03/13 12:02:40;;;;;;;9.55;4.40;;;14.60;22.40;;;;;;5049617;28;20033;-80
2022/03/13 12:05:24;;;;;;;7.78;4.15;;;14.90;22.60;;;;;;5033724;28;20035;-80
2022/03/13 12:07:56;;;;;;;9.10;4.20;;;14.60;22.00;;;;;;5048311;28;20033;-80
2022/03/13 12:10:52;;;;;;;7.25;4.32;;;14.40;21.60;;;;;;5046254;28;20026;-79
2022/03/13 12:13:20;;;;;;;6.50;3.65;;;14.70;22.50;;;;;;5050963;28;20128;-79
2022/03/13 12:15:46;;;;;;;7.38;4.15;;;15.50;21.80;;;;;;5052597;28;20024;-80
2022/03/13 12:18:23;;;;;;;6.95;4.15;;;15.20;21.70;;;;;;5043229;28;20028;-80
2022/03/13 12:20:52;;;;;;;6.45;4.00;;;15.30;21.50;;;;;;5044977;28;20112;-80
2022/03/13 12:23:33;;;;;;;7.40;4.20;;;15.50;21.60;;;;;;5050782;28;20025;-80
2022/03/13 12:26:22;;;;;;;7.20;4.68;;;15.50;22.00;;;;;;5044119;28;20507;-80
2022/03/13 12:28:49;;;;;;;7.07;4.22;;;15.70;21.90;;;;;;5051651;28;20041;-80
2022/03/13 12:31:15;;;;;;;6.93;3.92;;;15.90;22.00;;;;;;5035347;28;20037;-81
2022/03/13 12:33:53;;;;;;;6.90;4.45;;;15.90;21.70;;;;;;5048723;28;20021;-80
2022/03/13 12:36:19;;;;;;;8.25;4.50;;;15.50;22.00;;;;;;5044161;28;20048;-80
2022/03/13 12:38:49;;;;;;;6.20;4.30;;;15.80;21.60;;;;;;5047152;28;20514;-80
2022/03/13 12:41:14;;;;;;;6.68;4.47;;;16.40;21.60;;;;;;5048272;28;20028;-80
2022/03/13 12:43:47;;;;;;;9.10;4.18;;;15.80;21.80;;;;;;5051890;28;20040;-81
2022/03/13 12:46:14;;;;;;;7.63;4.47;;;16.30;21.80;;;;;;5043227;28;20036;-80
2022/03/13 12:49:02;;;;;;;7.47;4.90;;;16.00;21.60;;;;;;5052990;28;20029;-80
2022/03/13 12:51:47;;;;;;;7.85;4.68;;;16.30;21.10;;;;;;5049662;28;20021;-81